Time;durP1;ratioP1;P1;durP2;ratioP2;P2;SDS_P1;SDS_P2;PMS_P1;PMS_P2;Temp;Humidity;BMP_temperature;BMP_pressure;BME280_temperature;BME280_humidity;BME280_pressure;Samples;Min_cycle;Max_cycle;Signal;HPM_P1;HPM_P2
2023/07/07 00:00:05;;;;;;;3.83;3.13;;;;;;;15.17;100.00;101046.03;6146678;28;20050;-92
2023/07/07 00:03:07;;;;;;;3.40;3.08;;;;;;;15.16;100.00;101057.44;6136970;28;20055;-93
2023/07/07 00:06:09;;;;;;;3.13;2.83;;;;;;;15.13;100.00;101053.31;6155367;28;20075;-92
2023/07/07 00:09:11;;;;;;;3.05;2.85;;;;;;;15.11;100.00;101057.84;6140405;28;20043;-92
2023/07/07 00:12:16;;;;;;;4.82;3.00;;;;;;;15.06;100.00;101057.44;6140291;28;20067;-93
2023/07/07 00:15:18;;;;;;;4.95;2.80;;;;;;;14.94;100.00;101048.91;6138720;28;20035;-92
2023/07/07 00:18:26;;;;;;;4.32;2.95;;;;;;;14.89;100.00;101051.09;6153024;28;20039;-92
2023/07/07 00:21:29;;;;;;;3.38;2.60;;;;;;;14.82;100.00;101053.44;6139184;28;20047;-92
2023/07/07 00:24:33;;;;;;;4.70;3.45;;;;;;;14.80;100.00;101063.16;6130700;28;20386;-93
2023/07/07 00:27:35;;;;;;;3.47;3.15;;;;;;;14.78;100.00;101059.03;6150941;28;20057;-92
2023/07/07 00:30:37;;;;;;;3.13;2.75;;;;;;;14.77;100.00;101060.00;6105966;29;20062;-92
2023/07/07 00:33:38;;;;;;;3.80;2.88;;;;;;;14.77;100.00;101065.22;6146920;28;20050;-92
2023/07/07 00:36:40;;;;;;;4.72;3.00;;;;;;;14.77;100.00;101070.44;6142772;28;20316;-92
2023/07/07 00:39:42;;;;;;;3.88;3.20;;;;;;;14.74;100.00;101065.50;6140032;28;20043;-92
2023/07/07 00:42:44;;;;;;;3.67;3.05;;;;;;;14.72;100.00;101072.63;6139221;28;20054;-92
2023/07/07 00:45:47;;;;;;;3.47;3.15;;;;;;;14.69;100.00;101067.69;6140127;28;20584;-92
2023/07/07 00:48:49;;;;;;;4.20;2.90;;;;;;;14.67;100.00;101070.41;6139040;28;20536;-92
2023/07/07 00:51:58;;;;;;;4.78;3.13;;;;;;;14.62;100.00;101076.03;6140260;28;20178;-92
2023/07/07 00:55:01;;;;;;;3.70;3.15;;;;;;;14.57;100.00;101072.19;6135002;28;20039;-92
2023/07/07 00:58:07;;;;;;;3.33;2.90;;;;;;;14.54;100.00;101080.28;6136201;28;20315;-92
2023/07/07 01:01:17;;;;;;;3.78;2.90;;;;;;;14.47;100.00;101079.94;6144727;28;20579;-92
2023/07/07 01:04:20;;;;;;;4.90;3.22;;;;;;;14.44;100.00;101077.59;6147803;28;20039;-93
2023/07/07 01:07:35;;;;;;;3.22;2.75;;;;;;;14.40;100.00;101078.81;6130536;28;20502;-92
2023/07/07 01:10:37;;;;;;;5.30;3.40;;;;;;;14.34;100.00;101071.56;6144531;28;20061;-93
2023/07/07 01:13:39;;;;;;;3.75;3.22;;;;;;;14.30;100.00;101072.75;6137190;28;20047;-92
2023/07/07 01:17:29;;;;;;;3.95;2.88;;;;;;;14.30;100.00;101075.38;6137775;28;20047;-92
2023/07/07 01:20:37;;;;;;;3.53;3.20;;;;;;;14.24;100.00;101071.50;6096972;29;20581;-92
2023/07/07 01:23:56;;;;;;;4.22;2.90;;;;;;;14.22;100.00;101073.41;6088237;29;20446;-93
2023/07/07 01:27:20;;;;;;;5.38;2.72;;;;;;;14.16;100.00;101069.56;6107748;29;20654;-92
2023/07/07 01:30:40;;;;;;;4.15;3.20;;;;;;;14.09;100.00;101071.03;6101149;29;20146;-92
2023/07/07 01:33:44;;;;;;;5.43;3.05;;;;;;;14.07;100.00;101075.53;6093952;29;20592;-92
2023/07/07 01:36:45;;;;;;;5.35;2.90;;;;;;;14.04;100.00;101073.22;6070634;29;20048;-92
2023/07/07 01:39:47;;;;;;;3.22;2.90;;;;;;;13.99;100.00;101073.59;6088238;29;20530;-92
2023/07/07 01:42:57;;;;;;;3.13;2.80;;;;;;;14.03;100.00;101068.94;6075173;29;20063;-91
2023/07/07 01:46:10;;;;;;;5.85;2.90;;;;;;;14.06;100.00;101073.06;6087866;29;20238;-92
2023/07/07 01:49:39;;;;;;;3.33;3.00;;;;;;;14.10;100.00;101072.69;6068832;29;20051;-92
2023/07/07 01:52:53;;;;;;;4.57;3.08;;;;;;;14.09;100.00;101063.22;6087105;29;20514;-92
2023/07/07 01:55:59;;;;;;;4.63;2.53;;;;;;;14.08;100.00;101078.97;6087691;28;20421;-92
2023/07/07 01:59:02;;;;;;;3.55;2.40;;;;;;;14.03;100.00;101078.53;6137097;28;20093;-92
2023/07/07 02:02:04;;;;;;;5.78;2.80;;;;;;;14.02;100.00;101067.31;6141762;28;20073;-92
2023/07/07 02:05:08;;;;;;;3.20;2.55;;;;;;;13.98;100.00;101073.72;6140315;28;20541;-92
2023/07/07 02:08:10;;;;;;;3.92;2.42;;;;;;;14.00;100.00;101070.03;6140343;28;20452;-92
2023/07/07 02:11:12;;;;;;;4.32;2.50;;;;;;;14.03;100.00;101070.72;6134069;28;20054;-92
2023/07/07 02:14:13;;;;;;;3.05;2.80;;;;;;;14.07;100.00;101070.34;6127704;28;20075;-92
2023/07/07 02:17:15;;;;;;;3.60;2.40;;;;;;;14.10;100.00;101064.88;6156037;28;20069;-93
2023/07/07 02:20:17;;;;;;;3.70;2.63;;;;;;;14.13;100.00;101067.19;6141968;28;20043;-93
2023/07/07 02:23:19;;;;;;;3.35;2.63;;;;;;;14.14;100.00;101074.06;6146625;28;20054;-92
2023/07/07 02:26:21;;;;;;;4.22;2.60;;;;;;;14.18;100.00;101072.84;6140272;28;20044;-93
2023/07/07 02:29:23;;;;;;;3.45;2.63;;;;;;;14.22;100.00;101076.03;6138516;28;20489;-92
2023/07/07 02:32:25;;;;;;;2.60;2.40;;;;;;;14.30;100.00;101068.38;6143449;28;20069;-93
2023/07/07 02:35:27;;;;;;;3.38;2.50;;;;;;;14.38;100.00;101067.69;6134416;28;20191;-92
2023/07/07 02:38:30;;;;;;;4.80;2.40;;;;;;;14.52;100.00;101076.94;6138389;28;20035;-93
2023/07/07 02:41:32;;;;;;;3.90;2.47;;;;;;;14.60;100.00;101058.88;6141056;28;20047;-92
2023/07/07 02:44:34;;;;;;;3.83;2.50;;;;;;;14.58;100.00;101073.81;6143442;28;20055;-93
2023/07/07 02:47:36;;;;;;;4.13;2.40;;;;;;;14.56;100.00;101068.75;6145452;28;20055;-92
2023/07/07 02:50:38;;;;;;;5.38;2.40;;;;;;;14.57;100.00;101072.19;6143227;28;20154;-93
2023/07/07 02:53:40;;;;;;;4.20;2.28;;;;;;;14.52;100.00;101062.13;6145683;28;20497;-92
2023/07/07 02:56:42;;;;;;;4.15;2.17;;;;;;;14.53;100.00;101068.16;6119549;28;20052;-93
2023/07/07 02:59:43;;;;;;;4.53;2.30;;;;;;;14.63;100.00;101071.63;6141955;28;20051;-93
2023/07/07 03:02:46;;;;;;;4.00;1.90;;;;;;;14.74;100.00;101070.72;6140517;28;20047;-93
2023/07/07 03:05:48;;;;;;;4.00;2.40;;;;;;;14.77;100.00;101070.44;6142455;28;20425;-93
2023/07/07 03:08:51;;;;;;;2.10;1.85;;;;;;;14.81;100.00;101077.03;6142028;28;20058;-93
2023/07/07 03:11:54;;;;;;;4.22;2.50;;;;;;;14.82;100.00;101070.84;6141988;28;20245;-93
2023/07/07 03:14:59;;;;;;;2.45;2.25;;;;;;;14.82;100.00;101071.66;6142100;28;20047;-93
2023/07/07 03:18:01;;;;;;;4.07;2.55;;;;;;;14.78;100.00;101085.09;6141846;28;20050;-93
2023/07/07 03:21:03;;;;;;;3.15;1.88;;;;;;;14.78;100.00;101083.34;6143370;28;20047;-93
2023/07/07 03:24:07;;;;;;;2.38;2.13;;;;;;;14.80;100.00;101086.63;6144071;28;20417;-93
2023/07/07 03:27:09;;;;;;;2.95;1.85;;;;;;;14.80;100.00;101078.78;6151783;28;20699;-92
2023/07/07 03:30:15;;;;;;;3.05;2.05;;;;;;;14.81;100.00;101084.84;6128433;28;20051;-92
2023/07/07 03:33:38;;;;;;;3.45;2.10;;;;;;;14.76;100.00;101087.88;6131225;28;20051;-93
2023/07/07 03:36:42;;;;;;;6.18;2.20;;;;;;;14.73;100.00;101093.34;6142176;28;20097;-93
2023/07/07 03:39:44;;;;;;;5.78;2.10;;;;;;;14.77;100.00;101086.06;6150001;28;20054;-93
2023/07/07 03:42:46;;;;;;;2.53;1.77;;;;;;;14.83;100.00;101090.72;6140781;28;20054;-93
2023/07/07 03:45:48;;;;;;;2.95;1.98;;;;;;;14.82;100.00;101096.91;6142815;28;20694;-93
2023/07/07 03:48:53;;;;;;;7.03;2.40;;;;;;;14.82;100.00;101097.72;6142906;28;20069;-93
2023/07/07 03:51:58;;;;;;;4.03;1.95;;;;;;;14.89;100.00;101103.25;6139015;28;20059;-92
2023/07/07 03:55:04;;;;;;;4.22;1.90;;;;;;;14.92;100.00;101102.97;6141621;28;20101;-93
2023/07/07 03:58:06;;;;;;;4.53;2.05;;;;;;;14.94;100.00;101102.84;6152298;28;20109;-93
2023/07/07 04:01:12;;;;;;;4.43;1.70;;;;;;;14.99;100.00;101101.47;6154829;28;21030;-93
2023/07/07 04:04:14;;;;;;;3.65;2.15;;;;;;;14.98;100.00;101104.19;6140595;28;20480;-93
2023/07/07 04:07:16;;;;;;;5.18;2.30;;;;;;;15.01;100.00;101106.56;6142775;28;20158;-92
2023/07/07 04:10:18;;;;;;;2.50;2.20;;;;;;;15.02;100.00;101103.78;6142679;28;20398;-93
2023/07/07 04:13:20;;;;;;;4.57;2.10;;;;;;;15.05;100.00;101111.38;6142154;28;20035;-92
2023/07/07 04:16:24;;;;;;;2.95;1.85;;;;;;;15.07;100.00;101106.00;6125457;28;20047;-92
2023/07/07 04:19:26;;;;;;;5.45;2.05;;;;;;;15.03;100.00;101109.81;6142214;28;20162;-92
2023/07/07 04:22:30;;;;;;;3.88;2.05;;;;;;;15.02;100.00;101111.63;6142209;28;20051;-93
2023/07/07 04:25:31;;;;;;;6.00;2.30;;;;;;;14.94;100.00;101126.31;6142099;28;20079;-93
2023/07/07 04:28:40;;;;;;;4.63;2.05;;;;;;;14.87;100.00;101123.41;6142806;28;20051;-92
2023/07/07 04:31:45;;;;;;;4.10;2.00;;;;;;;14.76;100.00;101128.75;6134005;28;20051;-93
2023/07/07 04:34:47;;;;;;;2.53;1.70;;;;;;;14.69;100.00;101128.44;6141941;28;20729;-93
2023/07/07 04:37:50;;;;;;;2.40;1.70;;;;;;;14.66;100.00;101136.53;6142473;28;20051;-92
2023/07/07 04:40:52;;;;;;;3.35;2.40;;;;;;;14.66;100.00;101139.13;6143661;28;20509;-93
2023/07/07 04:43:59;;;;;;;2.45;2.17;;;;;;;14.65;100.00;101137.47;6143259;28;20055;-92
2023/07/07 04:47:02;;;;;;;4.60;2.30;;;;;;;14.67;100.00;101146.00;6141965;28;20049;-92
2023/07/07 04:50:04;;;;;;;3.30;2.20;;;;;;;14.77;100.00;101140.81;6142043;28;20162;-93
2023/07/07 04:53:07;;;;;;;2.42;2.03;;;;;;;14.73;100.00;101145.47;6139280;28;20043;-93
2023/07/07 04:56:18;;;;;;;3.55;2.17;;;;;;;14.73;100.00;101148.06;6141320;28;20161;-93
2023/07/07 04:59:20;;;;;;;4.00;2.15;;;;;;;14.73;100.00;101142.88;6156644;28;20047;-93
2023/07/07 05:02:26;;;;;;;5.38;2.15;;;;;;;14.79;100.00;101131.91;6151859;28;20109;-92
2023/07/07 05:05:27;;;;;;;3.47;2.35;;;;;;;14.85;100.00;101143.56;6128600;28;20050;-93
2023/07/07 05:08:32;;;;;;;3.20;2.20;;;;;;;14.92;100.00;101143.84;6139437;28;20556;-93
2023/07/07 05:11:34;;;;;;;6.38;2.58;;;;;;;14.98;100.00;101145.91;6140476;28;20086;-93
2023/07/07 05:14:37;;;;;;;3.15;2.53;;;;;;;15.07;100.00;101150.31;6129031;28;20386;-92
2023/07/07 05:17:38;;;;;;;3.40;2.25;;;;;;;15.13;100.00;101149.81;6153000;28;20058;-93
2023/07/07 05:20:40;;;;;;;3.10;2.33;;;;;;;15.12;100.00;101149.94;6141183;28;20138;-93
2023/07/07 05:23:42;;;;;;;4.05;2.38;;;;;;;15.20;100.00;101145.66;6128841;28;20134;-93
2023/07/07 05:26:44;;;;;;;3.08;2.00;;;;;;;15.28;100.00;101148.44;6133362;28;20211;-93
2023/07/07 05:29:49;;;;;;;3.80;2.25;;;;;;;15.38;100.00;101145.84;6141145;28;20498;-93
2023/07/07 05:32:51;;;;;;;4.18;2.28;;;;;;;15.47;100.00;101154.59;6144709;28;20064;-93
2023/07/07 05:35:55;;;;;;;2.70;2.30;;;;;;;15.50;100.00;101149.97;6140531;28;20178;-94
2023/07/07 05:38:57;;;;;;;3.45;2.50;;;;;;;15.58;100.00;101151.06;6140539;28;20429;-93
2023/07/07 05:41:59;;;;;;;2.78;2.58;;;;;;;15.60;100.00;101155.19;6141267;28;20122;-93
2023/07/07 05:45:01;;;;;;;3.40;2.33;;;;;;;15.64;100.00;101153.91;6140391;28;20043;-94
2023/07/07 05:48:04;;;;;;;4.95;2.50;;;;;;;15.74;100.00;101160.94;6139135;28;20516;-93
2023/07/07 05:51:10;;;;;;;2.45;2.25;;;;;;;15.86;100.00;101159.84;6139123;28;20047;-94
2023/07/07 05:54:13;;;;;;;6.88;2.75;;;;;;;15.89;100.00;101156.94;6139311;28;20390;-93
2023/07/07 05:57:15;;;;;;;4.88;2.33;;;;;;;16.00;100.00;101163.78;6149611;28;20310;-94
2023/07/07 06:00:18;;;;;;;4.68;2.67;;;;;;;16.06;100.00;101168.47;6160564;28;20408;-94
2023/07/07 06:03:19;;;;;;;3.08;2.58;;;;;;;16.09;100.00;101160.34;6148504;28;20050;-94
2023/07/07 06:06:22;;;;;;;3.38;2.20;;;;;;;16.18;100.00;101161.28;6150310;28;20035;-94
2023/07/07 06:09:23;;;;;;;4.20;2.35;;;;;;;16.35;100.00;101168.38;6144478;28;20043;-94
2023/07/07 06:12:25;;;;;;;3.75;2.58;;;;;;;16.45;100.00;101179.63;6142991;28;20046;-94
2023/07/07 06:15:27;;;;;;;5.32;2.67;;;;;;;16.56;100.00;101178.59;6145142;28;20047;-93
2023/07/07 06:18:29;;;;;;;2.50;2.30;;;;;;;16.67;100.00;101177.56;6159186;28;20556;-94
2023/07/07 06:21:31;;;;;;;2.75;2.40;;;;;;;16.80;100.00;101183.34;6149632;28;20039;-93
2023/07/07 06:24:32;;;;;;;4.63;2.47;;;;;;;16.95;100.00;101184.50;6143843;28;20054;-93
2023/07/07 06:27:34;;;;;;;2.67;1.80;;;;;;;17.06;100.00;101180.03;6144897;28;20054;-94
2023/07/07 06:30:37;;;;;;;5.55;3.25;;;;;;;17.10;100.00;101178.78;6148511;28;20046;-93
2023/07/07 06:33:42;;;;;;;6.60;2.97;;;;;;;17.13;100.00;101178.47;6148003;28;20628;-93
2023/07/07 06:36:44;;;;;;;5.30;3.05;;;;;;;17.19;100.00;101188.31;6145183;28;20043;-93
2023/07/07 06:39:45;;;;;;;7.28;2.80;;;;;;;17.30;100.00;101189.94;6144320;28;20545;-94
2023/07/07 06:42:51;;;;;;;5.00;2.30;;;;;;;17.40;100.00;101194.09;6144532;28;20438;-94
2023/07/07 06:45:55;;;;;;;5.22;2.70;;;;;;;17.51;100.00;101189.63;6144129;28;20051;-94
2023/07/07 06:48:59;;;;;;;4.55;2.03;;;;;;;17.61;100.00;101188.59;6144280;28;20047;-94
2023/07/07 06:52:01;;;;;;;4.82;2.20;;;;;;;17.74;100.00;101189.97;6141518;28;20042;-94
2023/07/07 06:55:03;;;;;;;3.08;2.50;;;;;;;17.85;100.00;101192.38;6141445;28;20043;-94
2023/07/07 06:58:06;;;;;;;3.97;2.50;;;;;;;17.97;100.00;101193.78;6144694;28;20035;-94
2023/07/07 07:01:14;;;;;;;2.90;1.92;;;;;;;18.07;100.00;101193.69;6148138;28;20049;-94
2023/07/07 07:04:16;;;;;;;2.63;2.00;;;;;;;18.16;100.00;101190.16;6142204;28;20050;-93
2023/07/07 07:07:18;;;;;;;4.78;2.40;;;;;;;18.27;100.00;101191.69;6149048;28;20114;-93
2023/07/07 07:10:20;;;;;;;4.75;2.00;;;;;;;18.42;100.00;101194.56;6143604;28;20086;-94
2023/07/07 07:13:21;;;;;;;3.17;2.20;;;;;;;18.50;100.00;101195.41;6144183;28;20415;-93
2023/07/07 07:16:23;;;;;;;3.28;2.05;;;;;;;18.56;100.00;101195.75;6144770;28;20041;-94
2023/07/07 07:19:25;;;;;;;3.33;2.30;;;;;;;18.63;100.00;101196.78;6152097;28;20043;-94
2023/07/07 07:22:27;;;;;;;3.03;2.30;;;;;;;18.71;100.00;101197.63;6151557;28;20062;-93
2023/07/07 07:25:29;;;;;;;2.70;1.88;;;;;;;18.81;100.00;101192.31;6143165;28;20047;-93
2023/07/07 07:28:31;;;;;;;3.38;2.15;;;;;;;18.92;100.00;101194.63;6143901;28;20039;-94
2023/07/07 07:31:33;;;;;;;2.53;1.90;;;;;;;19.03;100.00;101193.53;6143598;28;20070;-94
2023/07/07 07:34:35;;;;;;;3.40;2.00;;;;;;;19.24;100.00;101190.44;6144466;28;20047;-94
2023/07/07 07:37:38;;;;;;;4.63;1.98;;;;;;;19.34;100.00;101187.66;6144198;28;20386;-94
2023/07/07 07:40:40;;;;;;;4.38;2.30;;;;;;;19.42;100.00;101190.28;6143701;28;20050;-93
2023/07/07 07:43:42;;;;;;;4.40;2.25;;;;;;;19.47;100.00;101187.19;6143372;28;20086;-92
2023/07/07 07:46:45;;;;;;;2.20;1.77;;;;;;;19.60;100.00;101195.38;6143112;28;20046;-94
2023/07/07 07:49:47;;;;;;;4.65;2.45;;;;;;;19.70;100.00;101187.38;6136812;28;20198;-94
2023/07/07 07:52:49;;;;;;;2.92;2.10;;;;;;;19.62;100.00;101187.34;6149715;28;20054;-93
2023/07/07 07:55:51;;;;;;;3.10;2.22;;;;;;;19.70;100.00;101193.47;6151624;28;20050;-94
2023/07/07 07:58:53;;;;;;;2.55;1.80;;;;;;;19.78;100.00;101190.00;6130225;28;20133;-94
2023/07/07 08:01:55;;;;;;;4.68;2.00;;;;;;;19.89;100.00;101188.84;6134203;28;20043;-94
2023/07/07 08:04:57;;;;;;;5.78;2.00;;;;;;;19.92;100.00;101193.75;6142331;28;20047;-94
2023/07/07 08:07:59;;;;;;;4.13;2.20;;;;;;;20.01;100.00;101196.22;6141111;28;20051;-94
2023/07/07 08:11:01;;;;;;;3.35;2.08;;;;;;;20.11;100.00;101197.84;6148753;28;20086;-93
2023/07/07 08:14:12;;;;;;;1.70;1.60;;;;;;;20.22;100.00;101202.75;6127267;29;20039;-93
2023/07/07 08:17:15;;;;;;;2.92;2.30;;;;;;;20.31;100.00;101200.94;6142359;28;20532;-94
2023/07/07 08:20:19;;;;;;;2.85;2.00;;;;;;;20.38;100.00;101197.44;6141928;28;20047;-94
2023/07/07 08:23:21;;;;;;;4.30;2.25;;;;;;;20.48;100.00;101204.34;6142688;28;20089;-94
2023/07/07 08:26:23;;;;;;;3.13;1.90;;;;;;;20.58;100.00;101207.63;6132637;28;20090;-93
2023/07/07 08:29:27;;;;;;;3.15;2.15;;;;;;;20.62;100.00;101207.09;6142523;28;20489;-94
2023/07/07 08:32:28;;;;;;;2.40;2.20;;;;;;;20.73;100.00;101208.53;6156011;28;20145;-94
2023/07/07 08:35:30;;;;;;;2.50;2.30;;;;;;;20.85;100.00;101208.97;6142465;28;20043;-94
2023/07/07 08:38:32;;;;;;;3.08;2.13;;;;;;;20.94;100.00;101204.47;6142629;28;20133;-93
2023/07/07 08:41:35;;;;;;;3.55;2.10;;;;;;;20.98;100.00;101214.50;6142414;28;20039;-93
2023/07/07 08:44:37;;;;;;;1.90;1.70;;;;;;;21.05;100.00;101209.38;6148853;28;20141;-93
2023/07/07 08:48:26;;;;;;;3.03;2.20;;;;;;;21.21;100.00;101208.44;6142354;28;20062;-93
2023/07/07 08:51:37;;;;;;;3.10;1.77;;;;;;;21.23;100.00;101215.19;6043843;29;20057;-94
2023/07/07 08:54:55;;;;;;;1.80;1.70;;;;;;;21.29;100.00;101211.00;6043912;29;20571;-93
2023/07/07 08:58:04;;;;;;;3.42;1.83;;;;;;;21.35;100.00;101204.25;6038035;29;20054;-93
2023/07/07 09:01:24;;;;;;;2.72;1.73;;;;;;;21.43;100.00;101214.75;6046456;29;20108;-93
2023/07/07 09:05:13;;;;;;;2.10;1.90;;;;;;;21.48;100.00;101218.50;6038367;29;20045;-93
2023/07/07 09:08:36;;;;;;;3.33;2.05;;;;;;;21.61;100.00;101211.81;5995057;29;20073;-94
2023/07/07 09:12:42;;;;;;;3.10;1.75;;;;;;;21.84;100.00;101209.16;5997963;29;20057;-93
2023/07/07 09:16:01;;;;;;;2.22;1.67;;;;;;;21.89;100.00;101206.81;5966952;29;20058;-94
2023/07/07 09:19:10;;;;;;;3.45;1.80;;;;;;;21.96;100.00;101207.72;5951670;29;20199;-91
2023/07/07 09:22:31;;;;;;;2.67;1.70;;;;;;;22.09;100.00;101205.31;5988921;29;20062;-91
2023/07/07 09:25:41;;;;;;;;;;;;;;;22.45;100.00;101215.16;5986695;29;20068;-90
2023/07/07 09:28:54;;;;;;;2.58;1.30;;;;;;;22.73;100.00;101220.59;5987626;29;19932;-91
2023/07/07 09:31:58;;;;;;;3.08;1.50;;;;;;;22.54;100.00;101211.44;5982481;29;20065;-91
2023/07/07 09:35:01;;;;;;;2.05;1.40;;;;;;;22.24;100.00;101215.06;5998424;29;20046;-92
2023/07/07 09:38:40;;;;;;;2.83;1.45;;;;;;;22.35;100.00;101211.97;5982272;29;20424;-91
2023/07/07 09:42:01;;;;;;;2.60;1.77;;;;;;;22.52;100.00;101217.88;5997956;29;20207;-91
2023/07/07 09:45:31;;;;;;;3.50;1.75;;;;;;;22.52;100.00;101205.50;6071125;29;20138;-91
2023/07/07 09:48:43;;;;;;;3.47;1.70;;;;;;;22.52;100.00;101212.63;6089376;29;20310;-91
2023/07/07 09:52:13;;;;;;;4.00;1.50;;;;;;;22.38;100.00;101219.53;6142721;28;20074;-91
2023/07/07 09:55:20;;;;;;;1.98;1.52;;;;;;;22.29;100.00;101224.06;6140617;28;20118;-91
2023/07/07 09:58:38;;;;;;;2.72;1.30;;;;;;;22.35;100.00;101218.06;6140577;28;20413;-91
2023/07/07 10:01:46;;;;;;;2.70;1.42;;;;;;;22.50;100.00;101223.34;6150985;28;20040;-91
2023/07/07 10:05:03;;;;;;;2.28;1.60;;;;;;;22.65;100.00;101209.31;6140331;28;20058;-91
2023/07/07 10:08:11;;;;;;;3.33;1.90;;;;;;;22.77;100.00;101210.50;6139107;28;20043;-91
2023/07/07 10:11:20;;;;;;;3.67;1.70;;;;;;;23.01;100.00;101217.31;6139692;28;20058;-91
2023/07/07 10:14:31;;;;;;;2.10;1.50;;;;;;;23.12;100.00;101214.16;6140624;28;20047;-91
2023/07/07 10:17:50;;;;;;;2.55;1.55;;;;;;;23.07;100.00;101221.84;6130907;28;20043;-91
2023/07/07 10:20:56;;;;;;;1.73;1.58;;;;;;;23.04;100.00;101208.19;6134096;28;20052;-91
2023/07/07 10:23:58;;;;;;;2.17;1.75;;;;;;;23.13;100.00;101210.53;6133304;28;20633;-91
2023/07/07 10:27:00;;;;;;;2.70;1.63;;;;;;;23.32;100.00;101209.09;6138476;28;20055;-91
2023/07/07 10:30:05;;;;;;;3.50;1.80;;;;;;;23.42;100.00;101200.84;6140546;28;20346;-91
2023/07/07 10:33:12;;;;;;;3.97;1.80;;;;;;;23.61;100.00;101207.31;6140498;28;20190;-90
2023/07/07 10:36:27;;;;;;;2.25;1.70;;;;;;;23.73;100.00;101203.19;6140370;28;20046;-91
2023/07/07 10:39:31;;;;;;;3.60;1.52;;;;;;;23.80;100.00;101203.22;6141138;28;20166;-91
2023/07/07 10:42:33;;;;;;;1.55;1.40;;;;;;;23.96;100.00;101199.50;6140120;28;20067;-90
2023/07/07 10:45:34;;;;;;;3.75;1.65;;;;;;;24.04;100.00;101194.84;6139615;28;20405;-91
2023/07/07 10:48:39;;;;;;;2.55;1.70;;;;;;;24.12;100.00;101193.06;6140646;28;20154;-90
2023/07/07 10:52:11;;;;;;;3.05;1.63;;;;;;;24.21;100.00;101198.00;6149274;28;20055;-91
2023/07/07 10:55:32;;;;;;;3.35;2.20;;;;;;;24.23;100.00;101203.13;6142389;28;20546;-91
2023/07/07 10:58:54;;;;;;;;;;;;;;;24.29;100.00;101199.69;6144453;28;20151;-91
2023/07/07 11:02:20;;;;;;;2.92;1.77;;;;;;;24.42;100.00;101193.63;6075011;29;19927;-91
2023/07/07 11:05:50;;;;;;;2.55;1.75;;;;;;;24.34;100.00;101201.75;6068857;29;20594;-91
2023/07/07 11:09:16;;;;;;;2.00;1.67;;;;;;;24.34;100.00;101197.25;6072432;29;20139;-91
2023/07/07 11:12:28;;;;;;;3.33;1.92;;;;;;;24.44;100.00;101203.00;6075097;29;20502;-90
2023/07/07 11:15:42;;;;;;;2.88;1.70;;;;;;;24.57;100.00;101199.66;6055954;29;20056;-91
2023/07/07 11:19:08;;;;;;;2.83;1.55;;;;;;;24.75;100.00;101200.97;6068867;29;20064;-90
2023/07/07 11:22:48;;;;;;;3.90;1.77;;;;;;;24.75;98.55;101196.47;6053083;29;20053;-90
2023/07/07 11:26:29;;;;;;;2.90;1.52;;;;;;;24.87;92.15;101209.97;6056211;29;20060;-90
2023/07/07 11:29:46;;;;;;;1.63;1.50;;;;;;;24.95;89.88;101199.19;6070486;29;20165;-91
2023/07/07 11:33:25;;;;;;;2.63;1.80;;;;;;;25.11;100.00;101209.41;6072676;29;20522;-90
2023/07/07 11:36:46;;;;;;;3.35;1.83;;;;;;;25.26;99.97;101198.66;6049914;29;20056;-91
2023/07/07 11:39:56;;;;;;;;;;;;;;;25.30;100.00;101199.88;6068375;29;20071;-90
2023/07/07 11:43:16;;;;;;;;;;;;;;;25.33;100.00;101193.38;6092738;29;19966;-90
2023/07/07 11:47:01;;;;;;;1.85;1.50;;;;;;;25.65;100.00;101188.28;6091914;29;19933;-90
2023/07/07 11:50:51;;;;;;;2.97;1.63;;;;;;;25.89;100.00;101184.22;6097115;29;20457;-90
2023/07/07 11:54:31;;;;;;;2.00;1.50;;;;;;;26.06;94.10;101187.22;6020377;29;20065;-90
2023/07/07 11:58:06;;;;;;;2.55;1.48;;;;;;;26.35;100.00;101180.63;6011222;29;20618;-90
2023/07/07 12:01:33;;;;;;;2.50;1.80;;;;;;;26.55;92.40;101176.06;6008010;29;20053;-91
2023/07/07 12:04:43;;;;;;;2.35;1.75;;;;;;;26.66;92.44;101182.59;5999022;29;20233;-90
2023/07/07 12:07:51;;;;;;;2.10;1.83;;;;;;;26.79;89.32;101174.53;5998633;29;20080;-90
2023/07/07 12:10:56;;;;;;;2.45;1.70;;;;;;;27.00;99.36;101180.53;6010829;29;20079;-90
2023/07/07 12:14:10;;;;;;;4.05;1.70;;;;;;;27.15;91.31;101180.25;6077714;29;20414;-90
2023/07/07 12:17:25;;;;;;;2.83;1.88;;;;;;;27.31;92.15;101187.75;6077378;29;20056;-90
2023/07/07 12:20:33;;;;;;;3.15;1.52;;;;;;;27.48;83.58;101170.22;6081617;29;20044;-91
2023/07/07 12:23:39;;;;;;;2.45;1.70;;;;;;;27.68;90.80;101171.88;6075400;29;20060;-91
2023/07/07 12:26:48;;;;;;;3.40;1.98;;;;;;;27.94;100.00;101168.16;6062437;29;20079;-91
2023/07/07 12:29:52;;;;;;;2.20;1.40;;;;;;;28.18;92.62;101165.69;6112508;28;20055;-90
2023/07/07 12:32:54;;;;;;;3.70;1.73;;;;;;;28.26;89.48;101174.16;6141480;28;20290;-90
2023/07/07 12:35:58;;;;;;;2.05;1.48;;;;;;;28.40;98.09;101161.50;6142414;28;20153;-90
2023/07/07 12:39:02;;;;;;;2.22;1.77;;;;;;;28.53;85.28;101169.34;6139546;28;20055;-90
2023/07/07 12:42:04;;;;;;;4.90;1.80;;;;;;;28.59;85.98;101156.19;6142549;28;20051;-90
2023/07/07 12:45:09;;;;;;;2.40;1.60;;;;;;;28.64;88.66;101154.44;6141852;28;20043;-91
2023/07/07 12:48:20;;;;;;;1.63;1.50;;;;;;;28.63;74.92;101163.50;6142298;28;20050;-90
2023/07/07 12:51:22;;;;;;;2.55;1.60;;;;;;;28.81;82.90;101165.28;6132507;28;20044;-91
2023/07/07 12:54:35;;;;;;;2.50;1.70;;;;;;;28.97;83.19;101159.31;6154205;28;20401;-90
2023/07/07 12:57:37;;;;;;;3.60;1.60;;;;;;;29.16;82.99;101159.28;6139287;28;20054;-90
2023/07/07 13:00:41;;;;;;;2.20;1.48;;;;;;;29.26;79.86;101164.84;6153174;28;20156;-91
2023/07/07 13:03:43;;;;;;;4.50;1.58;;;;;;;29.28;68.65;101156.63;6140645;28;20047;-90
2023/07/07 13:07:03;;;;;;;2.80;1.77;;;;;;;29.40;67.54;101152.13;6141822;28;20137;-91
2023/07/07 13:10:33;;;;;;;2.33;1.50;;;;;;;29.46;78.09;101155.72;6131037;28;20039;-90
2023/07/07 13:13:45;;;;;;;2.50;1.70;;;;;;;29.70;79.64;101159.22;6138818;28;20052;-91
2023/07/07 13:16:47;;;;;;;2.88;1.42;;;;;;;29.74;72.12;101149.69;6153546;28;20043;-90
2023/07/07 13:19:51;;;;;;;2.47;1.60;;;;;;;29.77;61.09;101151.91;6141553;28;20077;-91
2023/07/07 13:23:06;;;;;;;1.92;1.73;;;;;;;29.77;67.37;101150.06;6141633;28;20039;-91
2023/07/07 13:26:26;;;;;;;2.05;1.55;;;;;;;29.94;83.21;101157.34;6151283;28;20043;-91
2023/07/07 13:29:28;;;;;;;1.80;1.52;;;;;;;30.16;67.20;101149.50;6141769;28;20170;-91
2023/07/07 13:32:32;;;;;;;3.20;1.70;;;;;;;30.09;58.04;101151.50;6139986;28;20043;-90
2023/07/07 13:35:45;;;;;;;3.40;1.70;;;;;;;30.16;69.49;101147.66;6140275;28;20072;-91
2023/07/07 13:38:48;;;;;;;1.83;1.45;;;;;;;30.03;58.27;101145.25;6141083;28;20178;-90
2023/07/07 13:41:51;;;;;;;2.17;1.40;;;;;;;30.18;76.22;101140.22;6141005;28;20517;-91
2023/07/07 13:45:06;;;;;;;2.00;1.70;;;;;;;30.39;62.74;101135.31;6141277;28;20051;-91
2023/07/07 13:48:16;;;;;;;3.63;1.73;;;;;;;30.52;79.79;101137.69;6150744;28;20071;-91
2023/07/07 13:51:23;;;;;;;1.60;1.50;;;;;;;30.70;69.71;101145.50;6141171;28;20039;-91
2023/07/07 13:54:27;;;;;;;1.63;1.52;;;;;;;30.81;60.24;101151.03;6144294;28;20389;-91
2023/07/07 13:57:32;;;;;;;2.03;1.50;;;;;;;30.86;54.43;101143.16;6144414;28;20581;-91
2023/07/07 14:00:37;;;;;;;2.17;1.67;;;;;;;30.85;59.66;101141.50;6140550;28;20047;-91
2023/07/07 14:03:46;;;;;;;2.55;1.45;;;;;;;30.96;60.46;101137.16;6141857;28;20089;-90
2023/07/07 14:06:49;;;;;;;1.70;1.60;;;;;;;31.00;50.29;101132.94;6137575;28;20043;-91
2023/07/07 14:09:51;;;;;;;3.30;1.60;;;;;;;31.08;53.94;101135.19;6141141;28;20497;-91
2023/07/07 14:12:53;;;;;;;1.70;1.60;;;;;;;31.21;58.37;101131.41;6140415;28;20088;-91
2023/07/07 14:16:01;;;;;;;2.00;1.52;;;;;;;31.37;60.96;101135.91;6128540;28;20054;-90
2023/07/07 14:19:40;;;;;;;1.65;1.50;;;;;;;31.49;50.07;101125.94;6141511;28;20101;-91
2023/07/07 14:22:43;;;;;;;1.92;1.63;;;;;;;31.47;55.32;101127.25;6140477;28;20586;-91
2023/07/07 14:25:47;;;;;;;2.17;1.58;;;;;;;31.60;59.75;101124.22;6142838;28;20047;-91